MSR732 EDDB-HECA
Flight info
| Callsign | MSR732 |
|---|---|
| Flight time | 3h 19m |
| Altitude | 31000 |
| Route | LUROS3Q/06R LUROS M725 HDO DCT EVIKU/N0474F370 DCT ODNEM DCT XOMBA DCT KEROP DCT TISAK/N0469F390 DCT RAXAD DCT RUGAS DCT KOROS DCT KUMBI L612 BLT A16 CVO |
| Aircraft | B77W/H-SDE1E2E3FGHIJ2J3J4J5M1RWXY/LB1D1 |
Departure
| Time | 2026-05-06 18:51 |
|---|---|
| Airport | Berlin Brandenburg Airport (EDDB) |
Arrival
| Time | 2026-05-06 22:11 |
|---|---|
| Airport | Cairo International Airport (HECA) |
| Time | Latitude | Longitude | Altitude | Speed | Heading |
|---|---|---|---|---|---|
| 2026-05-06 18:06 | 52.36426 | 13.50542 | 147 ft | 0 kts | 68° |
| 2026-05-06 18:33 | 52.36423 | 13.50529 | 146 ft | 2 kts | 68° |
| 2026-05-06 18:34 | 52.36418 | 13.50508 | 147 ft | 2 kts | 68° |
| 2026-05-06 18:34 | 52.36413 | 13.50487 | 146 ft | 2 kts | 68° |
| 2026-05-06 18:34 | 52.36408 | 13.50466 | 146 ft | 2 kts | 68° |
| 2026-05-06 18:34 | 52.36402 | 13.50442 | 146 ft | 2 kts | 68° |
| 2026-05-06 18:35 | 52.36397 | 13.50419 | 146 ft | 2 kts | 70° |
| 2026-05-06 18:35 | 52.36393 | 13.50394 | 146 ft | 2 kts | 82° |
| 2026-05-06 18:35 | 52.36392 | 13.50368 | 146 ft | 2 kts | 92° |
| 2026-05-06 18:35 | 52.36393 | 13.50345 | 146 ft | 2 kts | 102° |
| 2026-05-06 18:36 | 52.36398 | 13.50319 | 147 ft | 2 kts | 112° |
| 2026-05-06 18:36 | 52.36405 | 13.50296 | 146 ft | 2 kts | 122° |
| 2026-05-06 18:36 | 52.36415 | 13.50276 | 146 ft | 2 kts | 133° |
| 2026-05-06 18:36 | 52.36427 | 13.50258 | 146 ft | 2 kts | 143° |
| 2026-05-06 18:37 | 52.36440 | 13.50244 | 146 ft | 2 kts | 153° |
| 2026-05-06 18:37 | 52.36448 | 13.50238 | 147 ft | 0 kts | 159° |
| 2026-05-06 18:39 | 52.36446 | 13.50240 | 146 ft | 1 kts | 159° |
| 2026-05-06 18:40 | 52.36381 | 13.50282 | 146 ft | 10 kts | 158° |
| 2026-05-06 18:40 | 52.36301 | 13.50334 | 146 ft | 13 kts | 158° |
| 2026-05-06 18:40 | 52.36216 | 13.50388 | 146 ft | 12 kts | 158° |
| 2026-05-06 18:40 | 52.36133 | 13.50440 | 146 ft | 12 kts | 159° |
| 2026-05-06 18:41 | 52.36048 | 13.50490 | 146 ft | 11 kts | 160° |
| 2026-05-06 18:41 | 52.35974 | 13.50540 | 146 ft | 11 kts | 157° |
| 2026-05-06 18:41 | 52.35901 | 13.50587 | 146 ft | 11 kts | 158° |
| 2026-05-06 18:41 | 52.35831 | 13.50632 | 146 ft | 5 kts | 158° |
| 2026-05-06 18:42 | 52.35791 | 13.50658 | 146 ft | 7 kts | 158° |
| 2026-05-06 18:42 | 52.35737 | 13.50687 | 146 ft | 9 kts | 178° |
| 2026-05-06 18:42 | 52.35688 | 13.50611 | 147 ft | 13 kts | 235° |
| 2026-05-06 18:42 | 52.35643 | 13.50473 | 150 ft | 12 kts | 246° |
| 2026-05-06 18:43 | 52.35610 | 13.50340 | 150 ft | 13 kts | 248° |
| 2026-05-06 18:43 | 52.35570 | 13.50165 | 150 ft | 18 kts | 248° |
| 2026-05-06 18:43 | 52.35520 | 13.49956 | 153 ft | 20 kts | 248° |
| 2026-05-06 18:43 | 52.35466 | 13.49720 | 155 ft | 21 kts | 250° |
| 2026-05-06 18:44 | 52.35413 | 13.49498 | 155 ft | 22 kts | 248° |
| 2026-05-06 18:44 | 52.35349 | 13.49233 | 153 ft | 27 kts | 249° |
| 2026-05-06 18:44 | 52.35279 | 13.48935 | 153 ft | 22 kts | 248° |
| 2026-05-06 18:44 | 52.35222 | 13.48698 | 153 ft | 22 kts | 249° |
| 2026-05-06 18:45 | 52.35157 | 13.48424 | 153 ft | 28 kts | 249° |
| 2026-05-06 18:45 | 52.35084 | 13.48119 | 151 ft | 28 kts | 248° |
| 2026-05-06 18:45 | 52.35015 | 13.47824 | 150 ft | 27 kts | 248° |
| 2026-05-06 18:45 | 52.34942 | 13.47518 | 146 ft | 27 kts | 248° |
| 2026-05-06 18:46 | 52.34864 | 13.47194 | 143 ft | 26 kts | 248° |
| 2026-05-06 18:46 | 52.34802 | 13.46927 | 145 ft | 15 kts | 249° |
| 2026-05-06 18:46 | 52.34755 | 13.46777 | 146 ft | 8 kts | 218° |
| 2026-05-06 18:46 | 52.34717 | 13.46769 | 146 ft | 2 kts | 160° |
| 2026-05-06 18:47 | 52.34695 | 13.46782 | 146 ft | 3 kts | 159° |
| 2026-05-06 18:47 | 52.34685 | 13.46789 | 146 ft | 0 kts | 158° |
| 2026-05-06 18:50 | 52.34679 | 13.46792 | 146 ft | 4 kts | 158° |
| 2026-05-06 18:50 | 52.34605 | 13.46844 | 147 ft | 14 kts | 149° |
| 2026-05-06 18:50 | 52.34580 | 13.46984 | 146 ft | 12 kts | 71° |
| 2026-05-06 18:51 | 52.34658 | 13.47331 | 143 ft | 67 kts | 68° |
| 2026-05-06 18:51 | 52.34935 | 13.48492 | 153 ft | 145 kts | 69° |
| 2026-05-06 18:51 | 52.35382 | 13.50287 | 784 ft | 163 kts | 69° |
| 2026-05-06 18:51 | 52.35388 | 13.52318 | 1722 ft | 174 kts | 102° |
| 2026-05-06 18:52 | 52.34755 | 13.54239 | 2294 ft | 198 kts | 127° |
| 2026-05-06 18:52 | 52.33629 | 13.56101 | 2941 ft | 217 kts | 132° |
| 2026-05-06 18:52 | 52.32404 | 13.58048 | 3634 ft | 234 kts | 133° |
| 2026-05-06 18:52 | 52.31234 | 13.60371 | 4531 ft | 240 kts | 112° |
| 2026-05-06 18:53 | 52.30898 | 13.63165 | 4933 ft | 243 kts | 82° |
| 2026-05-06 18:53 | 52.31346 | 13.65946 | 4975 ft | 242 kts | 69° |
| 2026-05-06 18:53 | 52.31912 | 13.68537 | 4989 ft | 239 kts | 69° |
| 2026-05-06 18:53 | 52.32444 | 13.71126 | 4992 ft | 238 kts | 70° |
| 2026-05-06 18:54 | 52.32877 | 13.73947 | 4972 ft | 241 kts | 86° |
| 2026-05-06 18:54 | 52.32842 | 13.77158 | 4985 ft | 265 kts | 92° |
| 2026-05-06 18:54 | 52.32717 | 13.80507 | 4980 ft | 272 kts | 92° |
| 2026-05-06 18:54 | 52.32594 | 13.83748 | 4979 ft | 274 kts | 92° |
| 2026-05-06 18:55 | 52.32475 | 13.86995 | 5329 ft | 290 kts | 92° |
| 2026-05-06 18:55 | 52.32078 | 13.90349 | 6615 ft | 283 kts | 114° |
| 2026-05-06 18:55 | 52.30837 | 13.93188 | 7572 ft | 287 kts | 142° |
| 2026-05-06 18:55 | 52.29017 | 13.94763 | 8443 ft | 286 kts | 168° |
| 2026-05-06 18:56 | 52.26976 | 13.95491 | 9519 ft | 284 kts | 172° |
| 2026-05-06 18:56 | 52.24881 | 13.96158 | 10410 ft | 291 kts | 173° |
| 2026-05-06 18:56 | 52.22622 | 13.96868 | 11020 ft | 309 kts | 172° |
| 2026-05-06 18:56 | 52.20369 | 13.97576 | 11637 ft | 326 kts | 172° |
| 2026-05-06 18:57 | 52.17990 | 13.98322 | 12278 ft | 342 kts | 172° |
| 2026-05-06 18:57 | 52.15540 | 13.99092 | 13005 ft | 355 kts | 172° |
| 2026-05-06 18:57 | 52.13086 | 13.99865 | 13923 ft | 363 kts | 172° |
| 2026-05-06 18:57 | 52.10619 | 14.00642 | 14937 ft | 367 kts | 172° |
| 2026-05-06 18:58 | 52.08065 | 14.01445 | 16001 ft | 371 kts | 172° |
| 2026-05-06 18:58 | 52.05477 | 14.02259 | 17027 ft | 375 kts | 172° |
| 2026-05-06 18:58 | 52.02863 | 14.03079 | 18002 ft | 380 kts | 172° |
| 2026-05-06 18:58 | 52.00192 | 14.03917 | 19002 ft | 384 kts | 172° |
| 2026-05-06 18:59 | 51.97530 | 14.04751 | 19959 ft | 388 kts | 172° |
| 2026-05-06 18:59 | 51.94803 | 14.05605 | 20991 ft | 390 kts | 172° |
| 2026-05-06 18:59 | 51.92072 | 14.06459 | 21952 ft | 393 kts | 172° |
| 2026-05-06 18:59 | 51.89321 | 14.07318 | 22909 ft | 396 kts | 172° |
| 2026-05-06 19:00 | 51.86626 | 14.08159 | 23849 ft | 397 kts | 172° |
| 2026-05-06 19:00 | 51.83878 | 14.09014 | 24617 ft | 403 kts | 172° |
| 2026-05-06 19:00 | 51.81030 | 14.09900 | 24793 ft | 407 kts | 172° |
| 2026-05-06 19:00 | 51.78107 | 14.10808 | 24934 ft | 416 kts | 172° |
| 2026-05-06 19:01 | 51.75293 | 14.11682 | 25888 ft | 416 kts | 172° |
| 2026-05-06 19:01 | 51.72478 | 14.12557 | 27074 ft | 410 kts | 173° |
| 2026-05-06 19:01 | 51.69708 | 14.13417 | 27968 ft | 411 kts | 173° |
| 2026-05-06 19:01 | 51.66871 | 14.14294 | 28665 ft | 416 kts | 173° |
| 2026-05-06 19:02 | 51.64020 | 14.15174 | 29334 ft | 421 kts | 173° |
| 2026-05-06 19:02 | 51.61153 | 14.16060 | 30181 ft | 421 kts | 173° |
| 2026-05-06 19:02 | 51.58286 | 14.16944 | 30735 ft | 421 kts | 173° |
| 2026-05-06 19:03 | 51.52529 | 14.18719 | 30785 ft | 415 kts | 173° |
| 2026-05-06 19:03 | 51.46849 | 14.20466 | 30778 ft | 415 kts | 173° |
| 2026-05-06 19:04 | 51.41101 | 14.22228 | 30777 ft | 415 kts | 173° |
| 2026-05-06 19:04 | 51.35386 | 14.23976 | 30769 ft | 415 kts | 173° |
| 2026-05-06 19:05 | 51.29720 | 14.25704 | 30773 ft | 417 kts | 173° |
| 2026-05-06 19:05 | 51.24041 | 14.27433 | 30768 ft | 416 kts | 173° |
| 2026-05-06 19:06 | 51.18385 | 14.29151 | 30767 ft | 417 kts | 173° |
| 2026-05-06 19:06 | 51.12677 | 14.30882 | 30760 ft | 417 kts | 173° |
| 2026-05-06 19:07 | 51.06947 | 14.32615 | 30765 ft | 417 kts | 173° |
| 2026-05-06 19:07 | 51.01210 | 14.34347 | 30765 ft | 420 kts | 173° |
| 2026-05-06 19:08 | 50.95493 | 14.36072 | 30763 ft | 417 kts | 173° |
| 2026-05-06 19:08 | 50.89794 | 14.37930 | 30751 ft | 422 kts | 171° |
| 2026-05-06 19:09 | 50.84116 | 14.40076 | 30767 ft | 421 kts | 170° |
| 2026-05-06 19:09 | 50.78426 | 14.42209 | 30756 ft | 420 kts | 170° |
| 2026-05-06 19:10 | 50.72720 | 14.44331 | 30766 ft | 421 kts | 170° |
| 2026-05-06 19:10 | 50.67018 | 14.46441 | 30768 ft | 428 kts | 170° |
| 2026-05-06 19:10 | 50.64080 | 14.47521 | 30880 ft | 443 kts | 171° |
| 2026-05-06 19:11 | 50.61051 | 14.48635 | 31256 ft | 451 kts | 171° |
| 2026-05-06 19:11 | 50.58001 | 14.49760 | 32099 ft | 448 kts | 171° |
| 2026-05-06 19:11 | 50.54992 | 14.50868 | 33065 ft | 442 kts | 171° |
| 2026-05-06 19:11 | 50.52042 | 14.51963 | 33874 ft | 438 kts | 169° |
| 2026-05-06 19:12 | 50.49159 | 14.53464 | 34493 ft | 442 kts | 163° |
| 2026-05-06 19:12 | 50.46389 | 14.55582 | 34726 ft | 453 kts | 155° |
| 2026-05-06 19:12 | 50.43756 | 14.58366 | 34749 ft | 457 kts | 147° |
| 2026-05-06 19:13 | 50.39238 | 14.65486 | 34751 ft | 467 kts | 138° |
| 2026-05-06 19:13 | 50.34876 | 14.73131 | 34752 ft | 470 kts | 138° |
| 2026-05-06 19:14 | 50.30518 | 14.80667 | 34756 ft | 467 kts | 139° |
| 2026-05-06 19:14 | 50.26170 | 14.88114 | 34753 ft | 468 kts | 139° |
| 2026-05-06 19:15 | 50.21798 | 14.95554 | 34753 ft | 469 kts | 139° |
| 2026-05-06 19:15 | 50.17382 | 15.03036 | 34744 ft | 468 kts | 139° |
| 2026-05-06 19:16 | 50.12966 | 15.10486 | 34755 ft | 470 kts | 139° |
| 2026-05-06 19:16 | 50.08554 | 15.17909 | 34745 ft | 466 kts | 139° |
| 2026-05-06 19:17 | 50.04151 | 15.25289 | 34736 ft | 468 kts | 139° |
| 2026-05-06 19:17 | 49.99881 | 15.32425 | 34731 ft | 470 kts | 139° |
| 2026-05-06 19:18 | 49.95424 | 15.39853 | 34731 ft | 469 kts | 139° |
| 2026-05-06 19:18 | 49.90977 | 15.47242 | 34735 ft | 469 kts | 139° |
| 2026-05-06 19:19 | 49.86517 | 15.54631 | 34749 ft | 472 kts | 139° |
| 2026-05-06 19:19 | 49.82052 | 15.62007 | 34749 ft | 471 kts | 139° |
| 2026-05-06 19:20 | 49.77555 | 15.69413 | 34740 ft | 472 kts | 140° |
| 2026-05-06 19:20 | 49.73072 | 15.76776 | 34740 ft | 474 kts | 140° |
| 2026-05-06 19:21 | 49.68566 | 15.84158 | 34734 ft | 471 kts | 140° |
| 2026-05-06 19:21 | 49.64073 | 15.91492 | 34730 ft | 476 kts | 141° |
| 2026-05-06 19:22 | 49.59554 | 15.98851 | 34727 ft | 474 kts | 141° |
| 2026-05-06 19:22 | 49.55018 | 16.06216 | 34733 ft | 474 kts | 140° |
| 2026-05-06 19:23 | 49.50451 | 16.13609 | 34734 ft | 475 kts | 141° |
| 2026-05-06 19:23 | 49.45914 | 16.20931 | 34741 ft | 475 kts | 140° |
| 2026-05-06 19:24 | 49.41161 | 16.28581 | 34745 ft | 475 kts | 141° |
| 2026-05-06 19:24 | 49.36377 | 16.36255 | 34752 ft | 479 kts | 140° |
| 2026-05-06 19:25 | 49.31774 | 16.43622 | 34750 ft | 476 kts | 140° |
| 2026-05-06 19:25 | 49.27192 | 16.50930 | 34751 ft | 478 kts | 140° |
| 2026-05-06 19:26 | 49.22492 | 16.58407 | 34751 ft | 481 kts | 140° |
| 2026-05-06 19:26 | 49.17869 | 16.65741 | 34748 ft | 478 kts | 141° |
| 2026-05-06 19:27 | 49.12813 | 16.73735 | 34745 ft | 479 kts | 141° |
| 2026-05-06 19:27 | 49.07996 | 16.81330 | 34742 ft | 479 kts | 141° |
| 2026-05-06 19:28 | 49.03348 | 16.88637 | 34736 ft | 478 kts | 141° |
| 2026-05-06 19:28 | 48.98540 | 16.95764 | 34741 ft | 472 kts | 149° |
| 2026-05-06 19:29 | 48.93003 | 17.01670 | 34745 ft | 466 kts | 152° |
| 2026-05-06 19:29 | 48.87494 | 17.07394 | 34768 ft | 468 kts | 152° |
| 2026-05-06 19:30 | 48.81814 | 17.13276 | 34825 ft | 475 kts | 152° |
| 2026-05-06 19:30 | 48.78985 | 17.16199 | 35256 ft | 477 kts | 151° |
| 2026-05-06 19:30 | 48.76109 | 17.19171 | 35995 ft | 471 kts | 151° |
| 2026-05-06 19:30 | 48.73274 | 17.22097 | 36624 ft | 467 kts | 151° |
| 2026-05-06 19:31 | 48.70538 | 17.24913 | 36782 ft | 472 kts | 151° |
| 2026-05-06 19:31 | 48.62168 | 17.33512 | 36785 ft | 465 kts | 151° |
| 2026-05-06 19:32 | 48.56545 | 17.39267 | 36793 ft | 466 kts | 151° |
| 2026-05-06 19:32 | 48.51078 | 17.44848 | 36794 ft | 466 kts | 151° |
| 2026-05-06 19:33 | 48.45652 | 17.50372 | 36783 ft | 466 kts | 151° |
| 2026-05-06 19:33 | 48.40266 | 17.55841 | 36795 ft | 467 kts | 150° |
| 2026-05-06 19:34 | 48.34666 | 17.61513 | 36805 ft | 465 kts | 150° |
| 2026-05-06 19:34 | 48.28998 | 17.67238 | 36805 ft | 466 kts | 151° |
| 2026-05-06 19:35 | 48.23453 | 17.72825 | 36801 ft | 465 kts | 151° |
| 2026-05-06 19:35 | 48.17881 | 17.78423 | 36810 ft | 466 kts | 151° |
| 2026-05-06 19:36 | 48.12431 | 17.83884 | 36814 ft | 465 kts | 151° |
| 2026-05-06 19:36 | 48.06970 | 17.89343 | 36823 ft | 466 kts | 151° |
| 2026-05-06 19:37 | 48.01513 | 17.94783 | 36828 ft | 466 kts | 151° |
| 2026-05-06 19:37 | 47.95988 | 18.00277 | 36828 ft | 466 kts | 151° |
| 2026-05-06 19:38 | 47.90409 | 18.05810 | 36838 ft | 466 kts | 151° |
| 2026-05-06 19:38 | 47.84691 | 18.11466 | 36851 ft | 466 kts | 151° |
| 2026-05-06 19:39 | 47.79201 | 18.16883 | 36855 ft | 465 kts | 151° |
| 2026-05-06 19:39 | 47.73780 | 18.22217 | 36851 ft | 467 kts | 151° |
| 2026-05-06 19:40 | 47.68429 | 18.27470 | 36867 ft | 466 kts | 151° |
| 2026-05-06 19:40 | 47.62837 | 18.32944 | 36872 ft | 468 kts | 151° |
| 2026-05-06 19:41 | 47.57374 | 18.38280 | 36873 ft | 467 kts | 150° |
| 2026-05-06 19:41 | 47.51682 | 18.43824 | 36881 ft | 468 kts | 151° |
| 2026-05-06 19:42 | 47.46057 | 18.49290 | 36882 ft | 468 kts | 151° |
| 2026-05-06 19:42 | 47.40402 | 18.54770 | 36883 ft | 469 kts | 150° |
| 2026-05-06 19:43 | 47.34778 | 18.60206 | 36885 ft | 468 kts | 151° |
| 2026-05-06 19:43 | 47.29321 | 18.65467 | 36882 ft | 469 kts | 152° |
| 2026-05-06 19:44 | 47.23626 | 18.70944 | 36882 ft | 470 kts | 152° |
| 2026-05-06 19:44 | 47.17753 | 18.76577 | 36885 ft | 469 kts | 152° |
| 2026-05-06 19:45 | 47.11933 | 18.82145 | 36882 ft | 469 kts | 152° |
| 2026-05-06 19:45 | 47.06112 | 18.87700 | 36886 ft | 471 kts | 152° |
| 2026-05-06 19:46 | 47.00104 | 18.93417 | 36888 ft | 472 kts | 152° |
| 2026-05-06 19:46 | 46.94198 | 18.99021 | 36889 ft | 473 kts | 151° |
| 2026-05-06 19:47 | 46.88135 | 19.04761 | 36911 ft | 472 kts | 151° |
| 2026-05-06 19:47 | 46.81977 | 19.10575 | 36914 ft | 473 kts | 151° |
| 2026-05-06 19:48 | 46.75664 | 19.16518 | 36916 ft | 474 kts | 151° |
| 2026-05-06 19:48 | 46.69494 | 19.22312 | 36915 ft | 472 kts | 151° |
| 2026-05-06 19:49 | 46.63174 | 19.28229 | 36916 ft | 475 kts | 151° |
| 2026-05-06 19:49 | 46.56983 | 19.34010 | 36909 ft | 474 kts | 151° |
| 2026-05-06 19:50 | 46.50748 | 19.39817 | 36915 ft | 474 kts | 151° |
| 2026-05-06 19:50 | 46.44385 | 19.45727 | 36916 ft | 475 kts | 151° |
| 2026-05-06 19:51 | 46.38149 | 19.51505 | 36914 ft | 474 kts | 151° |
| 2026-05-06 19:51 | 46.31763 | 19.57405 | 36912 ft | 475 kts | 151° |
| 2026-05-06 19:52 | 46.25854 | 19.62851 | 36918 ft | 476 kts | 151° |
| 2026-05-06 19:52 | 46.19659 | 19.68546 | 36904 ft | 473 kts | 153° |
| 2026-05-06 19:53 | 46.13156 | 19.73379 | 36910 ft | 471 kts | 158° |
| 2026-05-06 19:53 | 46.06477 | 19.78092 | 36917 ft | 473 kts | 158° |
| 2026-05-06 19:54 | 46.03448 | 19.80221 | 37164 ft | 478 kts | 158° |
| 2026-05-06 19:54 | 46.00281 | 19.82447 | 37924 ft | 474 kts | 158° |
| 2026-05-06 19:54 | 45.96975 | 19.84768 | 38807 ft | 468 kts | 158° |
| 2026-05-06 19:54 | 45.93733 | 19.87039 | 38925 ft | 471 kts | 158° |
| 2026-05-06 19:55 | 45.87352 | 19.91500 | 38940 ft | 469 kts | 158° |
| 2026-05-06 19:55 | 45.81244 | 19.95757 | 38933 ft | 470 kts | 158° |
| 2026-05-06 19:56 | 45.74890 | 20.00175 | 38925 ft | 470 kts | 158° |
| 2026-05-06 19:56 | 45.68529 | 20.04587 | 38932 ft | 472 kts | 158° |
| 2026-05-06 19:57 | 45.61979 | 20.09118 | 38925 ft | 472 kts | 158° |
| 2026-05-06 19:57 | 45.55475 | 20.13607 | 38922 ft | 470 kts | 158° |
| 2026-05-06 19:58 | 45.48807 | 20.18195 | 38916 ft | 471 kts | 158° |
| 2026-05-06 19:58 | 45.42215 | 20.22720 | 38918 ft | 473 kts | 158° |
| 2026-05-06 19:59 | 45.35548 | 20.27288 | 38929 ft | 474 kts | 158° |
| 2026-05-06 19:59 | 45.29003 | 20.31764 | 38927 ft | 472 kts | 158° |
| 2026-05-06 20:00 | 45.23074 | 20.35807 | 38931 ft | 474 kts | 158° |
| 2026-05-06 20:00 | 45.16996 | 20.39942 | 38925 ft | 476 kts | 158° |
| 2026-05-06 20:01 | 45.10972 | 20.44031 | 38923 ft | 475 kts | 158° |
| 2026-05-06 20:01 | 45.04997 | 20.48077 | 38926 ft | 476 kts | 158° |
| 2026-05-06 20:02 | 44.99007 | 20.52123 | 38920 ft | 477 kts | 158° |
| 2026-05-06 20:02 | 44.93012 | 20.56165 | 38923 ft | 475 kts | 158° |
| 2026-05-06 20:03 | 44.87056 | 20.60170 | 38924 ft | 476 kts | 158° |
| 2026-05-06 20:03 | 44.81023 | 20.64217 | 38930 ft | 478 kts | 158° |
| 2026-05-06 20:04 | 44.75025 | 20.68232 | 38931 ft | 478 kts | 159° |
| 2026-05-06 20:04 | 44.68538 | 20.72564 | 38930 ft | 477 kts | 159° |
| 2026-05-06 20:05 | 44.62255 | 20.76750 | 38937 ft | 476 kts | 158° |
| 2026-05-06 20:05 | 44.55899 | 20.80975 | 38950 ft | 475 kts | 159° |
| 2026-05-06 20:06 | 44.49523 | 20.85202 | 38952 ft | 477 kts | 158° |
| 2026-05-06 20:06 | 44.42907 | 20.89578 | 39138 ft | 476 kts | 158° |
| 2026-05-06 20:07 | 44.39675 | 20.91710 | 38772 ft | 477 kts | 158° |
| 2026-05-06 20:07 | 44.36476 | 20.93820 | 38971 ft | 476 kts | 158° |
| 2026-05-06 20:07 | 44.30036 | 20.98057 | 38782 ft | 476 kts | 158° |
| 2026-05-06 20:08 | 44.27106 | 20.99983 | 38993 ft | 472 kts | 158° |
| 2026-05-06 20:08 | 44.24065 | 21.01976 | 38954 ft | 477 kts | 158° |
| 2026-05-06 20:08 | 44.21044 | 21.03957 | 39067 ft | 473 kts | 158° |
| 2026-05-06 20:08 | 44.18061 | 21.05909 | 38951 ft | 477 kts | 158° |
| 2026-05-06 20:09 | 44.12059 | 21.09832 | 38956 ft | 475 kts | 158° |
| 2026-05-06 20:09 | 44.06023 | 21.13766 | 38966 ft | 480 kts | 158° |
| 2026-05-06 20:10 | 43.99953 | 21.17716 | 38954 ft | 477 kts | 158° |
| 2026-05-06 20:10 | 43.96844 | 21.19735 | 38816 ft | 476 kts | 158° |
| 2026-05-06 20:10 | 43.93859 | 21.21671 | 38982 ft | 479 kts | 158° |
| 2026-05-06 20:11 | 43.87765 | 21.25617 | 38960 ft | 479 kts | 158° |
| 2026-05-06 20:11 | 43.81730 | 21.29517 | 38969 ft | 479 kts | 158° |
| 2026-05-06 20:12 | 43.75534 | 21.33510 | 38993 ft | 485 kts | 158° |
| 2026-05-06 20:12 | 43.69462 | 21.37417 | 38998 ft | 481 kts | 158° |
| 2026-05-06 20:13 | 43.63353 | 21.41336 | 39001 ft | 485 kts | 158° |
| 2026-05-06 20:13 | 43.57235 | 21.45255 | 39008 ft | 483 kts | 158° |
| 2026-05-06 20:14 | 43.51064 | 21.49196 | 39017 ft | 487 kts | 158° |
| 2026-05-06 20:14 | 43.44764 | 21.53212 | 39015 ft | 484 kts | 158° |
| 2026-05-06 20:15 | 43.38327 | 21.57304 | 39017 ft | 490 kts | 158° |
| 2026-05-06 20:15 | 43.31447 | 21.61667 | 39015 ft | 503 kts | 157° |
| 2026-05-06 20:16 | 43.24513 | 21.66054 | 39009 ft | 513 kts | 158° |
| 2026-05-06 20:16 | 43.17516 | 21.70472 | 39012 ft | 515 kts | 158° |
| 2026-05-06 20:17 | 43.10321 | 21.75003 | 39025 ft | 515 kts | 158° |
| 2026-05-06 20:17 | 43.03454 | 21.79315 | 39017 ft | 516 kts | 158° |
| 2026-05-06 20:18 | 42.96522 | 21.83657 | 38847 ft | 517 kts | 158° |
| 2026-05-06 20:18 | 42.93070 | 21.85816 | 39064 ft | 517 kts | 158° |
| 2026-05-06 20:18 | 42.89650 | 21.87951 | 39043 ft | 519 kts | 158° |
| 2026-05-06 20:19 | 42.82674 | 21.92300 | 39042 ft | 519 kts | 158° |
| 2026-05-06 20:19 | 42.75769 | 21.96594 | 39055 ft | 520 kts | 158° |
| 2026-05-06 20:20 | 42.68850 | 22.00884 | 39065 ft | 521 kts | 158° |
| 2026-05-06 20:20 | 42.61858 | 22.05211 | 39076 ft | 518 kts | 158° |
| 2026-05-06 20:21 | 42.54831 | 22.09548 | 39077 ft | 519 kts | 158° |
| 2026-05-06 20:21 | 42.47951 | 22.13784 | 39092 ft | 520 kts | 158° |
| 2026-05-06 20:22 | 42.40970 | 22.18071 | 39104 ft | 521 kts | 158° |
| 2026-05-06 20:22 | 42.34161 | 22.22242 | 39104 ft | 522 kts | 158° |
| 2026-05-06 20:23 | 42.27479 | 22.26247 | 39104 ft | 520 kts | 159° |
| 2026-05-06 20:23 | 42.20710 | 22.30073 | 39101 ft | 522 kts | 159° |
| 2026-05-06 20:24 | 42.13926 | 22.33905 | 39084 ft | 521 kts | 159° |
| 2026-05-06 20:24 | 42.07150 | 22.37730 | 39079 ft | 520 kts | 159° |
| 2026-05-06 20:25 | 42.00324 | 22.41578 | 39079 ft | 522 kts | 159° |
| 2026-05-06 20:25 | 41.93487 | 22.45427 | 39106 ft | 523 kts | 159° |
| 2026-05-06 20:26 | 41.86605 | 22.49293 | 39101 ft | 523 kts | 159° |
| 2026-05-06 20:26 | 41.79709 | 22.53159 | 39123 ft | 523 kts | 159° |
| 2026-05-06 20:27 | 41.72958 | 22.56934 | 39133 ft | 523 kts | 159° |
| 2026-05-06 20:27 | 41.66042 | 22.60793 | 39117 ft | 524 kts | 159° |
| 2026-05-06 20:28 | 41.59256 | 22.64571 | 39100 ft | 523 kts | 159° |
| 2026-05-06 20:28 | 41.52366 | 22.68398 | 39077 ft | 523 kts | 160° |
| 2026-05-06 20:29 | 41.45579 | 22.72159 | 39069 ft | 525 kts | 160° |
| 2026-05-06 20:29 | 41.38746 | 22.75938 | 39077 ft | 524 kts | 160° |
| 2026-05-06 20:30 | 41.29030 | 22.82953 | 39081 ft | 529 kts | 144° |
| 2026-05-06 20:31 | 41.23056 | 22.88893 | 39073 ft | 529 kts | 144° |
| 2026-05-06 20:31 | 41.17034 | 22.94871 | 39069 ft | 529 kts | 144° |
| 2026-05-06 20:32 | 41.11070 | 23.00766 | 39073 ft | 530 kts | 144° |
| 2026-05-06 20:32 | 41.05028 | 23.06719 | 39077 ft | 531 kts | 144° |
| 2026-05-06 20:33 | 40.98933 | 23.12707 | 39081 ft | 529 kts | 144° |
| 2026-05-06 20:33 | 40.92903 | 23.18615 | 39085 ft | 529 kts | 144° |
| 2026-05-06 20:34 | 40.86894 | 23.24488 | 39075 ft | 528 kts | 144° |
| 2026-05-06 20:34 | 40.80825 | 23.30406 | 39078 ft | 528 kts | 144° |
| 2026-05-06 20:35 | 40.74734 | 23.36331 | 39071 ft | 529 kts | 144° |
| 2026-05-06 20:35 | 40.68407 | 23.42470 | 39083 ft | 527 kts | 144° |
| 2026-05-06 20:36 | 40.62053 | 23.48622 | 39088 ft | 527 kts | 144° |
| 2026-05-06 20:36 | 40.55473 | 23.54976 | 39078 ft | 527 kts | 144° |
| 2026-05-06 20:37 | 40.48989 | 23.61222 | 39077 ft | 525 kts | 144° |
| 2026-05-06 20:37 | 40.42371 | 23.67580 | 39057 ft | 525 kts | 145° |
| 2026-05-06 20:38 | 40.35811 | 23.73868 | 39053 ft | 526 kts | 145° |
| 2026-05-06 20:38 | 40.29219 | 23.80171 | 39054 ft | 524 kts | 145° |
| 2026-05-06 20:39 | 40.22673 | 23.86414 | 39057 ft | 525 kts | 145° |
| 2026-05-06 20:39 | 40.16083 | 23.92684 | 39056 ft | 524 kts | 145° |
| 2026-05-06 20:40 | 40.09496 | 23.98936 | 39054 ft | 524 kts | 145° |
| 2026-05-06 20:40 | 40.02905 | 24.05176 | 39058 ft | 525 kts | 145° |
| 2026-05-06 20:41 | 39.96302 | 24.11413 | 39055 ft | 524 kts | 145° |
| 2026-05-06 20:41 | 39.89749 | 24.17587 | 39059 ft | 524 kts | 145° |
| 2026-05-06 20:42 | 39.83160 | 24.23779 | 39062 ft | 525 kts | 145° |
| 2026-05-06 20:42 | 39.76601 | 24.29931 | 39069 ft | 526 kts | 145° |
| 2026-05-06 20:43 | 39.69884 | 24.36213 | 39069 ft | 527 kts | 145° |
| 2026-05-06 20:43 | 39.63272 | 24.42383 | 39064 ft | 527 kts | 145° |
| 2026-05-06 20:44 | 39.56658 | 24.48540 | 39050 ft | 526 kts | 145° |
| 2026-05-06 20:44 | 39.49994 | 24.54728 | 39050 ft | 526 kts | 145° |
| 2026-05-06 20:45 | 39.43390 | 24.60846 | 39054 ft | 526 kts | 144° |
| 2026-05-06 20:45 | 39.36749 | 24.66984 | 39045 ft | 527 kts | 145° |
| 2026-05-06 20:46 | 39.30098 | 24.73115 | 39049 ft | 527 kts | 146° |
| 2026-05-06 20:46 | 39.23472 | 24.79210 | 39052 ft | 527 kts | 146° |
| 2026-05-06 20:47 | 39.16783 | 24.85348 | 39048 ft | 527 kts | 146° |
| 2026-05-06 20:47 | 39.10068 | 24.91446 | 39043 ft | 527 kts | 148° |
| 2026-05-06 20:48 | 39.03089 | 24.96907 | 39052 ft | 527 kts | 150° |
| 2026-05-06 20:48 | 38.96123 | 25.02272 | 39053 ft | 525 kts | 150° |
| 2026-05-06 20:49 | 38.89146 | 25.07634 | 39059 ft | 527 kts | 150° |
| 2026-05-06 20:49 | 38.82149 | 25.13000 | 39067 ft | 529 kts | 150° |
| 2026-05-06 20:50 | 38.75112 | 25.18385 | 39067 ft | 528 kts | 150° |
| 2026-05-06 20:50 | 38.68059 | 25.23769 | 39074 ft | 529 kts | 150° |
| 2026-05-06 20:51 | 38.61031 | 25.29123 | 39075 ft | 528 kts | 150° |
| 2026-05-06 20:51 | 38.53932 | 25.34517 | 39073 ft | 529 kts | 150° |
| 2026-05-06 20:52 | 38.46801 | 25.39924 | 39064 ft | 530 kts | 150° |
| 2026-05-06 20:52 | 38.39682 | 25.45309 | 39076 ft | 530 kts | 150° |
| 2026-05-06 20:53 | 38.32579 | 25.50670 | 39081 ft | 529 kts | 150° |
| 2026-05-06 20:53 | 38.25476 | 25.56018 | 39073 ft | 530 kts | 150° |
| 2026-05-06 20:54 | 38.18368 | 25.61358 | 39066 ft | 530 kts | 150° |
| 2026-05-06 20:54 | 38.11333 | 25.66631 | 39057 ft | 530 kts | 151° |
| 2026-05-06 20:55 | 38.04274 | 25.71910 | 39068 ft | 530 kts | 151° |
| 2026-05-06 20:55 | 37.97092 | 25.77268 | 39074 ft | 530 kts | 151° |
| 2026-05-06 20:56 | 37.90023 | 25.82530 | 39080 ft | 530 kts | 151° |
| 2026-05-06 20:56 | 37.82879 | 25.87837 | 39088 ft | 531 kts | 150° |
| 2026-05-06 20:57 | 37.75760 | 25.93113 | 39081 ft | 531 kts | 151° |
| 2026-05-06 20:57 | 37.68626 | 25.98387 | 39086 ft | 531 kts | 151° |
| 2026-05-06 20:58 | 37.61407 | 26.03712 | 39088 ft | 531 kts | 151° |
| 2026-05-06 20:58 | 37.54255 | 26.08977 | 39083 ft | 530 kts | 151° |
| 2026-05-06 20:59 | 37.47070 | 26.14253 | 39087 ft | 529 kts | 151° |
| 2026-05-06 20:59 | 37.39941 | 26.19477 | 39088 ft | 531 kts | 151° |
| 2026-05-06 21:00 | 37.32759 | 26.24728 | 39089 ft | 530 kts | 151° |
| 2026-05-06 21:00 | 37.25565 | 26.29976 | 39087 ft | 530 kts | 151° |
| 2026-05-06 21:01 | 37.18430 | 26.35169 | 39085 ft | 529 kts | 151° |
| 2026-05-06 21:01 | 37.11222 | 26.40404 | 39083 ft | 529 kts | 151° |
| 2026-05-06 21:02 | 37.04023 | 26.45620 | 39078 ft | 529 kts | 151° |
| 2026-05-06 21:02 | 36.96830 | 26.50821 | 39097 ft | 530 kts | 151° |
| 2026-05-06 21:03 | 36.89675 | 26.55984 | 39105 ft | 529 kts | 152° |
| 2026-05-06 21:03 | 36.82544 | 26.61117 | 39102 ft | 530 kts | 152° |
| 2026-05-06 21:04 | 36.75370 | 26.66270 | 39100 ft | 531 kts | 152° |
| 2026-05-06 21:04 | 36.68162 | 26.71436 | 39098 ft | 529 kts | 152° |
| 2026-05-06 21:05 | 36.60967 | 26.76582 | 39099 ft | 529 kts | 152° |
| 2026-05-06 21:05 | 36.53812 | 26.81688 | 39099 ft | 528 kts | 152° |
| 2026-05-06 21:06 | 36.46594 | 26.86828 | 39094 ft | 529 kts | 152° |
| 2026-05-06 21:06 | 36.39400 | 26.91940 | 39100 ft | 528 kts | 152° |
| 2026-05-06 21:07 | 36.32223 | 26.97028 | 39097 ft | 529 kts | 152° |
| 2026-05-06 21:07 | 36.25045 | 27.02107 | 39097 ft | 528 kts | 152° |
| 2026-05-06 21:08 | 36.17867 | 27.07174 | 39095 ft | 530 kts | 152° |
| 2026-05-06 21:08 | 36.10738 | 27.12197 | 39097 ft | 529 kts | 152° |
| 2026-05-06 21:09 | 36.03513 | 27.17277 | 39097 ft | 528 kts | 152° |
| 2026-05-06 21:09 | 35.96323 | 27.22321 | 39098 ft | 528 kts | 152° |
| 2026-05-06 21:10 | 35.89127 | 27.27358 | 39103 ft | 528 kts | 152° |
| 2026-05-06 21:10 | 35.81937 | 27.32380 | 39091 ft | 528 kts | 152° |
| 2026-05-06 21:11 | 35.74864 | 27.37311 | 39102 ft | 528 kts | 152° |
| 2026-05-06 21:11 | 35.67739 | 27.42268 | 39104 ft | 528 kts | 152° |
| 2026-05-06 21:12 | 35.60564 | 27.47248 | 39097 ft | 527 kts | 152° |
| 2026-05-06 21:12 | 35.53308 | 27.52276 | 39088 ft | 526 kts | 152° |
| 2026-05-06 21:13 | 35.46123 | 27.57243 | 39086 ft | 526 kts | 152° |
| 2026-05-06 21:13 | 35.38960 | 27.62184 | 39096 ft | 526 kts | 152° |
| 2026-05-06 21:14 | 35.31696 | 27.67186 | 39089 ft | 524 kts | 153° |
| 2026-05-06 21:14 | 35.24520 | 27.72116 | 39094 ft | 525 kts | 153° |
| 2026-05-06 21:15 | 35.17405 | 27.76994 | 39093 ft | 524 kts | 153° |
| 2026-05-06 21:15 | 35.10530 | 27.81699 | 39097 ft | 524 kts | 153° |
| 2026-05-06 21:16 | 35.03486 | 27.86510 | 39094 ft | 524 kts | 153° |
| 2026-05-06 21:16 | 34.96402 | 27.91338 | 39099 ft | 523 kts | 153° |
| 2026-05-06 21:17 | 34.89482 | 27.96045 | 39098 ft | 523 kts | 153° |
| 2026-05-06 21:17 | 34.82405 | 28.00850 | 39104 ft | 523 kts | 153° |
| 2026-05-06 21:18 | 34.75285 | 28.05673 | 39100 ft | 522 kts | 153° |
| 2026-05-06 21:18 | 34.68248 | 28.10432 | 39111 ft | 522 kts | 153° |
| 2026-05-06 21:19 | 34.61143 | 28.15227 | 39119 ft | 521 kts | 153° |
| 2026-05-06 21:19 | 34.54224 | 28.19887 | 39114 ft | 522 kts | 153° |
| 2026-05-06 21:20 | 34.47221 | 28.24595 | 39111 ft | 522 kts | 153° |
| 2026-05-06 21:20 | 34.40200 | 28.29306 | 39099 ft | 522 kts | 153° |
| 2026-05-06 21:21 | 34.33218 | 28.33981 | 39103 ft | 521 kts | 153° |
| 2026-05-06 21:21 | 34.26155 | 28.38702 | 39098 ft | 521 kts | 153° |
| 2026-05-06 21:22 | 34.19163 | 28.43367 | 39097 ft | 520 kts | 153° |
| 2026-05-06 21:22 | 34.12202 | 28.48001 | 39095 ft | 519 kts | 153° |
| 2026-05-06 21:23 | 34.05206 | 28.52651 | 39099 ft | 519 kts | 153° |
| 2026-05-06 21:23 | 33.98223 | 28.57282 | 39102 ft | 520 kts | 153° |
| 2026-05-06 21:24 | 33.91332 | 28.61844 | 39104 ft | 521 kts | 153° |
| 2026-05-06 21:24 | 33.84322 | 28.66477 | 39095 ft | 520 kts | 153° |
| 2026-05-06 21:25 | 33.77315 | 28.71098 | 39097 ft | 520 kts | 154° |
| 2026-05-06 21:25 | 33.70480 | 28.76033 | 39096 ft | 523 kts | 143° |
| 2026-05-06 21:26 | 33.64554 | 28.82533 | 39100 ft | 526 kts | 138° |
| 2026-05-06 21:26 | 33.58743 | 28.89122 | 39102 ft | 526 kts | 138° |
| 2026-05-06 21:27 | 33.52885 | 28.95719 | 39105 ft | 526 kts | 138° |
| 2026-05-06 21:27 | 33.47026 | 29.02288 | 39104 ft | 525 kts | 138° |
| 2026-05-06 21:28 | 33.41145 | 29.08857 | 39111 ft | 525 kts | 138° |
| 2026-05-06 21:28 | 33.35263 | 29.15411 | 39113 ft | 525 kts | 138° |
| 2026-05-06 21:29 | 33.29306 | 29.22032 | 39110 ft | 525 kts | 139° |
| 2026-05-06 21:29 | 33.23396 | 29.28587 | 39098 ft | 526 kts | 139° |
| 2026-05-06 21:30 | 33.17476 | 29.35140 | 39098 ft | 524 kts | 139° |
| 2026-05-06 21:30 | 33.11550 | 29.41687 | 39094 ft | 524 kts | 139° |
| 2026-05-06 21:31 | 33.05650 | 29.48191 | 39098 ft | 524 kts | 139° |
| 2026-05-06 21:31 | 32.99736 | 29.54699 | 39099 ft | 525 kts | 139° |
| 2026-05-06 21:32 | 32.93880 | 29.61130 | 39097 ft | 524 kts | 139° |
| 2026-05-06 21:32 | 32.85235 | 29.70603 | 39090 ft | 523 kts | 139° |
| 2026-05-06 21:33 | 32.79429 | 29.76950 | 39085 ft | 523 kts | 139° |
| 2026-05-06 21:33 | 32.73511 | 29.83407 | 39093 ft | 523 kts | 139° |
| 2026-05-06 21:34 | 32.67656 | 29.89784 | 39091 ft | 523 kts | 139° |
| 2026-05-06 21:34 | 32.61732 | 29.96223 | 39092 ft | 522 kts | 139° |
| 2026-05-06 21:35 | 32.55866 | 30.02589 | 39094 ft | 523 kts | 139° |
| 2026-05-06 21:35 | 32.49989 | 30.08953 | 39098 ft | 523 kts | 140° |
| 2026-05-06 21:36 | 32.44040 | 30.15375 | 39102 ft | 522 kts | 140° |
| 2026-05-06 21:36 | 32.38168 | 30.21697 | 39112 ft | 523 kts | 139° |
| 2026-05-06 21:37 | 32.32222 | 30.28089 | 39107 ft | 522 kts | 140° |
| 2026-05-06 21:37 | 32.26306 | 30.34435 | 39115 ft | 522 kts | 139° |
| 2026-05-06 21:38 | 32.20421 | 30.40737 | 39110 ft | 522 kts | 140° |
| 2026-05-06 21:38 | 32.14516 | 30.47050 | 39111 ft | 522 kts | 140° |
| 2026-05-06 21:39 | 32.08650 | 30.53308 | 39107 ft | 521 kts | 140° |
| 2026-05-06 21:39 | 32.02792 | 30.59548 | 39098 ft | 521 kts | 140° |
| 2026-05-06 21:40 | 31.96934 | 30.65776 | 39097 ft | 521 kts | 140° |
| 2026-05-06 21:40 | 31.91009 | 30.72064 | 39084 ft | 520 kts | 140° |
| 2026-05-06 21:41 | 31.85293 | 30.78120 | 39087 ft | 520 kts | 140° |
| 2026-05-06 21:41 | 31.79439 | 30.84311 | 39086 ft | 518 kts | 141° |
| 2026-05-06 21:42 | 31.76480 | 30.87437 | 38675 ft | 510 kts | 141° |
| 2026-05-06 21:42 | 31.73569 | 30.90508 | 37409 ft | 515 kts | 140° |
| 2026-05-06 21:42 | 31.70594 | 30.93644 | 36332 ft | 515 kts | 140° |
| 2026-05-06 21:42 | 31.67738 | 30.96652 | 35572 ft | 513 kts | 140° |
| 2026-05-06 21:43 | 31.64970 | 30.99564 | 34763 ft | 515 kts | 140° |
| 2026-05-06 21:43 | 31.62296 | 31.02375 | 33832 ft | 519 kts | 140° |
| 2026-05-06 21:43 | 31.59605 | 31.05202 | 32760 ft | 521 kts | 139° |
| 2026-05-06 21:43 | 31.56870 | 31.07938 | 31749 ft | 521 kts | 144° |
| 2026-05-06 21:44 | 31.53859 | 31.10223 | 30789 ft | 519 kts | 153° |
| 2026-05-06 21:44 | 31.50602 | 31.11942 | 30185 ft | 509 kts | 162° |
| 2026-05-06 21:44 | 31.47230 | 31.13071 | 29681 ft | 498 kts | 170° |
| 2026-05-06 21:44 | 31.43855 | 31.13804 | 29113 ft | 490 kts | 172° |
| 2026-05-06 21:45 | 31.40512 | 31.14472 | 28516 ft | 485 kts | 173° |
| 2026-05-06 21:45 | 31.37189 | 31.15123 | 27908 ft | 480 kts | 173° |
| 2026-05-06 21:45 | 31.33948 | 31.15751 | 27315 ft | 475 kts | 173° |
| 2026-05-06 21:45 | 31.30689 | 31.16376 | 26721 ft | 470 kts | 173° |
| 2026-05-06 21:46 | 31.27479 | 31.16987 | 26115 ft | 465 kts | 173° |
| 2026-05-06 21:46 | 31.24260 | 31.17597 | 25510 ft | 461 kts | 173° |
| 2026-05-06 21:46 | 31.21039 | 31.18205 | 24901 ft | 456 kts | 173° |
| 2026-05-06 21:46 | 31.17898 | 31.18794 | 24300 ft | 452 kts | 173° |
| 2026-05-06 21:47 | 31.14736 | 31.19387 | 23692 ft | 448 kts | 173° |
| 2026-05-06 21:47 | 31.11524 | 31.19987 | 23066 ft | 444 kts | 173° |
| 2026-05-06 21:47 | 31.08327 | 31.20583 | 22436 ft | 440 kts | 173° |
| 2026-05-06 21:47 | 31.05326 | 31.21142 | 21838 ft | 437 kts | 173° |
| 2026-05-06 21:48 | 31.02179 | 31.21728 | 21207 ft | 433 kts | 173° |
| 2026-05-06 21:48 | 30.99172 | 31.22287 | 20595 ft | 430 kts | 173° |
| 2026-05-06 21:48 | 30.96235 | 31.22832 | 19991 ft | 427 kts | 173° |
| 2026-05-06 21:48 | 30.93224 | 31.23391 | 19360 ft | 424 kts | 173° |
| 2026-05-06 21:49 | 30.90283 | 31.23936 | 18744 ft | 421 kts | 173° |
| 2026-05-06 21:49 | 30.87289 | 31.24491 | 18122 ft | 418 kts | 173° |
| 2026-05-06 21:49 | 30.84330 | 31.25038 | 17491 ft | 415 kts | 173° |
| 2026-05-06 21:49 | 30.81429 | 31.25575 | 16863 ft | 412 kts | 173° |
| 2026-05-06 21:50 | 30.78623 | 31.26094 | 16258 ft | 410 kts | 173° |
| 2026-05-06 21:50 | 30.75793 | 31.26617 | 15662 ft | 407 kts | 173° |
| 2026-05-06 21:50 | 30.73000 | 31.27132 | 15040 ft | 405 kts | 173° |
| 2026-05-06 21:50 | 30.70241 | 31.27642 | 14427 ft | 402 kts | 173° |
| 2026-05-06 21:51 | 30.67424 | 31.28161 | 13804 ft | 400 kts | 173° |
| 2026-05-06 21:51 | 30.64639 | 31.28674 | 13198 ft | 398 kts | 173° |
| 2026-05-06 21:51 | 30.61885 | 31.29182 | 12585 ft | 395 kts | 172° |
| 2026-05-06 21:51 | 30.59166 | 31.29682 | 11968 ft | 393 kts | 172° |
| 2026-05-06 21:52 | 30.56444 | 31.30183 | 11362 ft | 391 kts | 172° |
| 2026-05-06 21:52 | 30.53740 | 31.30681 | 10855 ft | 385 kts | 172° |
| 2026-05-06 21:52 | 30.51128 | 31.31161 | 10734 ft | 368 kts | 172° |
| 2026-05-06 21:52 | 30.48637 | 31.31620 | 10627 ft | 353 kts | 172° |
| 2026-05-06 21:53 | 30.46203 | 31.31874 | 10479 ft | 338 kts | 183° |
| 2026-05-06 21:53 | 30.43835 | 31.31689 | 10443 ft | 353 kts | 186° |
| 2026-05-06 21:53 | 30.41230 | 31.31408 | 10443 ft | 369 kts | 187° |
| 2026-05-06 21:53 | 30.38628 | 31.31119 | 10429 ft | 371 kts | 187° |
| 2026-05-06 21:54 | 30.36033 | 31.30831 | 10423 ft | 370 kts | 187° |
| 2026-05-06 21:54 | 30.33451 | 31.30545 | 10441 ft | 371 kts | 187° |
| 2026-05-06 21:54 | 30.30858 | 31.30257 | 10406 ft | 370 kts | 187° |
| 2026-05-06 21:54 | 30.28285 | 31.29973 | 10405 ft | 363 kts | 187° |
| 2026-05-06 21:55 | 30.25835 | 31.29703 | 10410 ft | 345 kts | 187° |
| 2026-05-06 21:55 | 30.23481 | 31.29376 | 10317 ft | 328 kts | 195° |
| 2026-05-06 21:55 | 30.21384 | 31.28330 | 9784 ft | 326 kts | 217° |
| 2026-05-06 21:55 | 30.19760 | 31.26443 | 9345 ft | 319 kts | 233° |
| 2026-05-06 21:56 | 30.18416 | 31.24456 | 9310 ft | 303 kts | 234° |
| 2026-05-06 21:56 | 30.17161 | 31.22582 | 9311 ft | 288 kts | 234° |
| 2026-05-06 21:56 | 30.15947 | 31.20776 | 9250 ft | 277 kts | 234° |
| 2026-05-06 21:56 | 30.14767 | 31.19021 | 8942 ft | 276 kts | 234° |
| 2026-05-06 21:57 | 30.13590 | 31.17265 | 8584 ft | 276 kts | 234° |
| 2026-05-06 21:57 | 30.12417 | 31.15516 | 8267 ft | 275 kts | 234° |
| 2026-05-06 21:57 | 30.11261 | 31.13798 | 8140 ft | 266 kts | 234° |
| 2026-05-06 21:57 | 30.10141 | 31.12146 | 8124 ft | 252 kts | 234° |
| 2026-05-06 21:58 | 30.09080 | 31.10589 | 7986 ft | 247 kts | 234° |
| 2026-05-06 21:58 | 30.07721 | 31.09200 | 7262 ft | 269 kts | 208° |
| 2026-05-06 21:58 | 30.05840 | 31.08789 | 6638 ft | 282 kts | 173° |
| 2026-05-06 21:58 | 30.04066 | 31.09664 | 6307 ft | 278 kts | 138° |
| 2026-05-06 21:59 | 30.02971 | 31.11475 | 5984 ft | 272 kts | 110° |
| 2026-05-06 21:59 | 30.02295 | 31.13537 | 5723 ft | 268 kts | 107° |
| 2026-05-06 21:59 | 30.01678 | 31.15528 | 5660 ft | 257 kts | 107° |
| 2026-05-06 21:59 | 30.01228 | 31.17469 | 5643 ft | 240 kts | 88° |
| 2026-05-06 22:00 | 30.01566 | 31.19227 | 5604 ft | 219 kts | 56° |
| 2026-05-06 22:00 | 30.02607 | 31.20401 | 5415 ft | 206 kts | 22° |
| 2026-05-06 22:00 | 30.03993 | 31.20636 | 5145 ft | 201 kts | 348° |
| 2026-05-06 22:00 | 30.05188 | 31.19885 | 4874 ft | 203 kts | 314° |
| 2026-05-06 22:01 | 30.06013 | 31.18540 | 4589 ft | 206 kts | 305° |
| 2026-05-06 22:01 | 30.06768 | 31.17124 | 4340 ft | 206 kts | 304° |
| 2026-05-06 22:01 | 30.07464 | 31.15692 | 4097 ft | 209 kts | 292° |
| 2026-05-06 22:01 | 30.07571 | 31.13979 | 3570 ft | 230 kts | 260° |
| 2026-05-06 22:02 | 30.06805 | 31.12297 | 2910 ft | 254 kts | 227° |
| 2026-05-06 22:02 | 30.05239 | 31.11224 | 2712 ft | 264 kts | 195° |
| 2026-05-06 22:02 | 30.03408 | 31.10778 | 2710 ft | 269 kts | 190° |
| 2026-05-06 22:02 | 30.01535 | 31.10383 | 2709 ft | 266 kts | 189° |
| 2026-05-06 22:03 | 29.99721 | 31.10003 | 2703 ft | 266 kts | 188° |
| 2026-05-06 22:03 | 29.97865 | 31.10051 | 2698 ft | 265 kts | 162° |
| 2026-05-06 22:03 | 29.96279 | 31.11035 | 2686 ft | 258 kts | 133° |
| 2026-05-06 22:03 | 29.95273 | 31.12692 | 2687 ft | 249 kts | 107° |
| 2026-05-06 22:04 | 29.95008 | 31.14629 | 2685 ft | 231 kts | 81° |
| 2026-05-06 22:04 | 29.95364 | 31.16381 | 2697 ft | 213 kts | 69° |
| 2026-05-06 22:04 | 29.95813 | 31.17998 | 2694 ft | 200 kts | 68° |
| 2026-05-06 22:04 | 29.96231 | 31.19494 | 2689 ft | 187 kts | 68° |
| 2026-05-06 22:05 | 29.96622 | 31.20895 | 2697 ft | 173 kts | 68° |
| 2026-05-06 22:05 | 29.96985 | 31.22193 | 2700 ft | 167 kts | 67° |
| 2026-05-06 22:05 | 29.97347 | 31.23477 | 2701 ft | 164 kts | 67° |
| 2026-05-06 22:05 | 29.97656 | 31.24771 | 2699 ft | 165 kts | 73° |
| 2026-05-06 22:06 | 29.97932 | 31.26069 | 2697 ft | 164 kts | 62° |
| 2026-05-06 22:06 | 29.98563 | 31.27190 | 2708 ft | 161 kts | 48° |
| 2026-05-06 22:06 | 29.99333 | 31.28204 | 2699 ft | 161 kts | 46° |
| 2026-05-06 22:06 | 30.00084 | 31.29180 | 2697 ft | 161 kts | 46° |
| 2026-05-06 22:07 | 30.00830 | 31.30161 | 2697 ft | 160 kts | 46° |
| 2026-05-06 22:07 | 30.01589 | 31.31161 | 2705 ft | 159 kts | 46° |
| 2026-05-06 22:07 | 30.02335 | 31.32147 | 2554 ft | 160 kts | 46° |
| 2026-05-06 22:07 | 30.03025 | 31.33060 | 2347 ft | 139 kts | 46° |
| 2026-05-06 22:08 | 30.03639 | 31.33872 | 2189 ft | 129 kts | 45° |
| 2026-05-06 22:08 | 30.04228 | 31.34650 | 2029 ft | 124 kts | 45° |
| 2026-05-06 22:08 | 30.04813 | 31.35425 | 1863 ft | 123 kts | 46° |
| 2026-05-06 22:08 | 30.05379 | 31.36175 | 1704 ft | 123 kts | 46° |
| 2026-05-06 22:09 | 30.05968 | 31.36955 | 1539 ft | 123 kts | 46° |
| 2026-05-06 22:09 | 30.06545 | 31.37718 | 1370 ft | 124 kts | 46° |
| 2026-05-06 22:09 | 30.07133 | 31.38493 | 1202 ft | 124 kts | 47° |
| 2026-05-06 22:09 | 30.07702 | 31.39276 | 993 ft | 124 kts | 50° |
| 2026-05-06 22:10 | 30.08275 | 31.40020 | 809 ft | 125 kts | 47° |
| 2026-05-06 22:10 | 30.08856 | 31.40796 | 654 ft | 125 kts | 46° |
| 2026-05-06 22:10 | 30.09449 | 31.41566 | 509 ft | 126 kts | 47° |
| 2026-05-06 22:10 | 30.10037 | 31.42348 | 394 ft | 118 kts | 49° |
| 2026-05-06 22:11 | 30.10509 | 31.42958 | 392 ft | 81 kts | 49° |
| 2026-05-06 22:11 | 30.10791 | 31.43333 | 392 ft | 28 kts | 49° |
| 2026-05-06 22:11 | 30.10890 | 31.43442 | 392 ft | 24 kts | 37° |
| 2026-05-06 22:11 | 30.11054 | 31.43541 | 392 ft | 24 kts | 26° |
| 2026-05-06 22:12 | 30.11177 | 31.43598 | 392 ft | 17 kts | 0° |
| 2026-05-06 22:12 | 30.11247 | 31.43503 | 392 ft | 16 kts | 265° |
| 2026-05-06 22:12 | 30.11286 | 31.43385 | 392 ft | 15 kts | 314° |
| 2026-05-06 22:12 | 30.11362 | 31.43298 | 392 ft | 14 kts | 320° |
| 2026-05-06 22:13 | 30.11443 | 31.43225 | 392 ft | 14 kts | 322° |
| 2026-05-06 22:13 | 30.11521 | 31.43148 | 392 ft | 14 kts | 319° |
| 2026-05-06 22:13 | 30.11597 | 31.43076 | 392 ft | 13 kts | 321° |
| 2026-05-06 22:13 | 30.11672 | 31.43003 | 392 ft | 14 kts | 320° |
| 2026-05-06 22:14 | 30.11749 | 31.42925 | 392 ft | 15 kts | 317° |
| 2026-05-06 22:14 | 30.11831 | 31.42837 | 392 ft | 19 kts | 318° |
| 2026-05-06 22:14 | 30.11939 | 31.42731 | 392 ft | 19 kts | 321° |
| 2026-05-06 22:14 | 30.12043 | 31.42633 | 392 ft | 19 kts | 320° |
| 2026-05-06 22:15 | 30.12151 | 31.42531 | 392 ft | 20 kts | 317° |
| 2026-05-06 22:15 | 30.12193 | 31.42396 | 391 ft | 18 kts | 244° |
| 2026-05-06 22:15 | 30.12114 | 31.42279 | 392 ft | 18 kts | 229° |
| 2026-05-06 22:15 | 30.12030 | 31.42167 | 392 ft | 18 kts | 230° |
| 2026-05-06 22:16 | 30.11948 | 31.42055 | 392 ft | 18 kts | 229° |
| 2026-05-06 22:16 | 30.11864 | 31.41947 | 391 ft | 18 kts | 227° |
| 2026-05-06 22:16 | 30.11780 | 31.41838 | 391 ft | 18 kts | 229° |
| 2026-05-06 22:16 | 30.11700 | 31.41730 | 391 ft | 17 kts | 229° |
| 2026-05-06 22:17 | 30.11600 | 31.41596 | 391 ft | 26 kts | 229° |
| 2026-05-06 22:17 | 30.11484 | 31.41441 | 391 ft | 24 kts | 229° |
| 2026-05-06 22:17 | 30.11375 | 31.41295 | 391 ft | 23 kts | 229° |
| 2026-05-06 22:17 | 30.11268 | 31.41151 | 391 ft | 23 kts | 229° |
| 2026-05-06 22:18 | 30.11161 | 31.41011 | 391 ft | 22 kts | 229° |
| 2026-05-06 22:18 | 30.11060 | 31.40876 | 391 ft | 22 kts | 229° |
| 2026-05-06 22:18 | 30.10959 | 31.40742 | 391 ft | 21 kts | 229° |
| 2026-05-06 22:18 | 30.10862 | 31.40612 | 391 ft | 21 kts | 229° |
| 2026-05-06 22:19 | 30.10766 | 31.40485 | 391 ft | 20 kts | 229° |
| 2026-05-06 22:19 | 30.10706 | 31.40403 | 391 ft | 8 kts | 229° |
| 2026-05-06 22:19 | 30.10687 | 31.40334 | 391 ft | 11 kts | 280° |
| 2026-05-06 22:19 | 30.10690 | 31.40239 | 391 ft | 12 kts | 245° |
| 2026-05-06 22:20 | 30.10635 | 31.40155 | 391 ft | 15 kts | 229° |
| 2026-05-06 22:20 | 30.10560 | 31.40055 | 391 ft | 16 kts | 229° |
| 2026-05-06 22:20 | 30.10493 | 31.39952 | 391 ft | 15 kts | 256° |
| 2026-05-06 22:20 | 30.10548 | 31.39857 | 391 ft | 14 kts | 333° |
| 2026-05-06 22:21 | 30.10641 | 31.39823 | 391 ft | 10 kts | 345° |
| 2026-05-06 22:21 | 30.10712 | 31.39804 | 391 ft | 10 kts | 347° |
| 2026-05-06 22:21 | 30.10783 | 31.39784 | 391 ft | 10 kts | 344° |
| 2026-05-06 22:21 | 30.10823 | 31.39761 | 391 ft | 5 kts | 298° |
| 2026-05-06 22:22 | 30.10819 | 31.39730 | 391 ft | 1 kts | 250° |
| 2026-05-06 22:22 | 30.10814 | 31.39712 | 391 ft | 3 kts | 253° |
| 2026-05-06 22:22 | 30.10809 | 31.39694 | 391 ft | 0 kts | 254° |